createdAt,value
2023-04-30T00:00:25.121Z,4.63
2023-04-30T00:02:51.807Z,4.62
2023-04-30T00:05:18.817Z,4.61
2023-04-30T00:07:45.523Z,4.59
2023-04-30T00:10:12.272Z,4.58
2023-04-30T00:12:39.235Z,4.57
2023-04-30T00:15:06.830Z,4.55
2023-04-30T00:17:33.797Z,4.53
2023-04-30T00:20:01.209Z,4.53
2023-04-30T00:22:27.973Z,4.50
2023-04-30T00:24:54.793Z,4.48
2023-04-30T00:27:21.780Z,4.46
2023-04-30T00:29:48.491Z,4.44
2023-04-30T00:32:15.438Z,4.41
2023-04-30T00:34:42.355Z,4.38
2023-04-30T00:37:09.108Z,4.36
2023-04-30T00:39:35.850Z,4.34
2023-04-30T00:42:02.912Z,4.33
2023-04-30T00:44:29.524Z,4.32
2023-04-30T00:46:56.257Z,4.31
2023-04-30T00:49:22.931Z,4.30
2023-04-30T00:51:49.704Z,4.30
2023-04-30T00:54:16.374Z,4.28
2023-04-30T00:56:42.989Z,4.26
2023-04-30T00:59:09.661Z,4.25
2023-04-30T01:01:36.761Z,4.23
2023-04-30T01:04:03.375Z,4.22
2023-04-30T01:06:30.161Z,4.18
2023-04-30T01:08:57.386Z,4.17
2023-04-30T01:11:46.090Z,4.16
2023-04-30T01:14:29.323Z,4.14
2023-04-30T01:17:08.671Z,4.12
2023-04-30T01:19:38.312Z,4.09
2023-04-30T01:22:05.154Z,4.07
2023-04-30T01:24:43.517Z,4.05
2023-04-30T01:27:14.613Z,4.03
2023-04-30T01:29:42.781Z,4.00
2023-04-30T01:32:12.445Z,3.97
2023-04-30T01:34:39.967Z,3.94
2023-04-30T01:37:16.580Z,3.92
2023-04-30T01:40:23.020Z,3.89
2023-04-30T01:43:05.752Z,3.85
2023-04-30T01:45:51.193Z,3.81
2023-04-30T01:48:40.273Z,3.78
2023-04-30T01:51:28.615Z,3.74
2023-04-30T01:53:58.015Z,3.71
2023-04-30T01:56:31.745Z,3.68
2023-04-30T01:58:59.042Z,3.65
2023-04-30T02:01:29.990Z,3.61
2023-04-30T02:03:56.984Z,3.57
2023-04-30T02:06:28.614Z,3.53
2023-04-30T02:08:56.931Z,3.51
2023-04-30T02:11:24.792Z,3.48
2023-04-30T02:13:51.411Z,3.45
2023-04-30T02:16:18.135Z,3.43
2023-04-30T02:18:45.945Z,3.41
2023-04-30T02:21:12.735Z,3.39
2023-04-30T02:23:39.377Z,3.36
2023-04-30T02:26:06.098Z,3.32
2023-04-30T02:28:32.753Z,3.30
2023-04-30T02:30:59.571Z,3.27
2023-04-30T02:33:26.396Z,3.25
2023-04-30T02:35:55.224Z,3.21
2023-04-30T02:38:21.884Z,3.20
2023-04-30T02:40:48.704Z,3.19
2023-04-30T02:43:15.400Z,3.17
2023-04-30T02:45:42.125Z,3.16
2023-04-30T02:48:08.821Z,3.15
2023-04-30T02:50:35.626Z,3.13
2023-04-30T02:53:02.342Z,3.12
2023-04-30T02:55:28.982Z,3.11
2023-04-30T02:57:56.301Z,3.10
2023-04-30T03:00:23.478Z,3.09
2023-04-30T03:02:50.253Z,3.09
2023-04-30T03:05:17.823Z,3.09
2023-04-30T03:07:44.486Z,3.09
2023-04-30T03:10:11.125Z,3.11
2023-04-30T03:12:37.958Z,3.12
2023-04-30T03:15:05.576Z,3.15
2023-04-30T03:17:32.267Z,3.17
2023-04-30T03:19:59.037Z,3.19
2023-04-30T03:22:26.852Z,3.21
2023-04-30T03:24:53.519Z,3.25
2023-04-30T03:27:20.174Z,3.29
2023-04-30T03:29:47.171Z,3.32
2023-04-30T03:32:13.787Z,3.36
2023-04-30T03:34:40.668Z,3.40
2023-04-30T03:37:07.284Z,3.45
2023-04-30T03:39:33.910Z,3.49
2023-04-30T03:42:01.807Z,3.54
2023-04-30T03:44:28.698Z,3.59
2023-04-30T03:46:55.568Z,3.67
2023-04-30T03:49:22.227Z,3.75
2023-04-30T03:51:49.016Z,3.82
2023-04-30T03:54:15.634Z,3.90
2023-04-30T03:56:42.412Z,3.97
2023-04-30T03:59:09.134Z,4.05
2023-04-30T04:01:36.156Z,4.13
2023-04-30T04:04:02.888Z,4.20
2023-04-30T04:06:30.015Z,4.29
2023-04-30T04:08:56.740Z,4.37
2023-04-30T04:11:23.360Z,4.46
2023-04-30T04:13:50.086Z,4.54
2023-04-30T04:16:16.875Z,4.65
2023-04-30T04:18:44.471Z,4.73
2023-04-30T04:21:11.904Z,4.82
2023-04-30T04:23:39.329Z,4.91
2023-04-30T04:26:05.956Z,5.02
2023-04-30T04:28:32.772Z,5.11
2023-04-30T04:30:59.768Z,5.22
2023-04-30T04:33:26.458Z,5.33
2023-04-30T04:35:53.117Z,5.43
2023-04-30T04:38:19.777Z,5.54
2023-04-30T04:40:53.578Z,5.66
2023-04-30T04:43:20.405Z,5.79
2023-04-30T04:45:48.062Z,5.92
2023-04-30T04:48:15.187Z,6.05
2023-04-30T04:50:41.993Z,6.17
2023-04-30T04:53:08.702Z,6.30
2023-04-30T04:55:36.041Z,6.42
2023-04-30T04:58:02.684Z,6.55
2023-04-30T05:00:29.993Z,6.68
2023-04-30T05:02:57.026Z,6.82
2023-04-30T05:05:23.928Z,6.94
2023-04-30T05:07:52.511Z,7.07
2023-04-30T05:10:19.376Z,7.17
2023-04-30T05:12:46.242Z,7.27
2023-04-30T05:15:12.961Z,7.37
2023-04-30T05:17:39.760Z,7.49
2023-04-30T05:20:07.583Z,7.60
2023-04-30T05:22:34.553Z,7.69
2023-04-30T05:25:01.196Z,7.80
2023-04-30T05:27:27.898Z,7.93
2023-04-30T05:29:54.766Z,8.05
2023-04-30T05:32:23.095Z,8.14
2023-04-30T05:34:50.157Z,8.26
2023-04-30T05:37:19.482Z,8.39
2023-04-30T05:39:46.781Z,8.58
2023-04-30T05:42:13.417Z,8.75
2023-04-30T05:44:41.029Z,8.94
2023-04-30T05:47:07.818Z,9.12
2023-04-30T05:49:36.015Z,9.30
2023-04-30T05:52:03.775Z,9.44
2023-04-30T05:54:31.193Z,9.56
2023-04-30T05:56:57.962Z,9.66
2023-04-30T05:59:24.696Z,9.77
2023-04-30T06:01:52.190Z,9.86
2023-04-30T06:04:18.904Z,9.95
2023-04-30T06:06:45.847Z,10.03
2023-04-30T06:09:12.710Z,10.11
2023-04-30T06:11:41.663Z,10.21
2023-04-30T06:14:10.114Z,10.31
2023-04-30T06:16:36.948Z,10.42
2023-04-30T06:19:03.900Z,10.50
2023-04-30T06:21:30.834Z,10.51
2023-04-30T06:23:57.496Z,10.52
2023-04-30T06:26:24.143Z,10.53
2023-04-30T06:28:50.918Z,10.56
2023-04-30T06:31:17.552Z,10.63
2023-04-30T06:33:44.583Z,10.68
2023-04-30T06:36:11.295Z,10.74
2023-04-30T06:38:37.890Z,10.83
2023-04-30T06:41:04.601Z,10.86
2023-04-30T06:43:31.307Z,10.91
2023-04-30T06:45:57.968Z,11.02
2023-04-30T06:48:24.951Z,11.14
2023-04-30T06:50:51.605Z,11.26
2023-04-30T06:53:18.408Z,11.36
2023-04-30T06:55:46.538Z,11.39
2023-04-30T06:58:13.223Z,11.47
2023-04-30T07:00:39.992Z,11.57
2023-04-30T07:03:06.715Z,11.65
2023-04-30T07:05:33.543Z,11.64
2023-04-30T07:08:01.609Z,11.59
2023-04-30T07:10:28.319Z,11.60
2023-04-30T07:12:55.565Z,11.60
2023-04-30T07:15:22.197Z,11.61
2023-04-30T07:17:49.005Z,11.61
2023-04-30T14:41:44.348Z,13.76
2023-04-30T14:44:11.114Z,13.80
2023-04-30T14:46:37.927Z,13.84
2023-04-30T14:49:05.024Z,13.88
2023-04-30T14:51:32.433Z,13.93
2023-04-30T14:53:59.412Z,13.92
2023-04-30T14:56:26.111Z,13.88
2023-04-30T14:58:53.668Z,13.88
2023-04-30T15:01:20.355Z,13.92
2023-04-30T15:03:47.313Z,13.95
2023-04-30T15:06:14.346Z,13.95
2023-04-30T15:08:41.362Z,13.85
2023-04-30T15:11:10.404Z,13.71
2023-04-30T15:13:37.664Z,13.64
2023-04-30T15:16:05.109Z,13.61
2023-04-30T15:18:32.395Z,13.61
2023-04-30T15:20:59.222Z,13.61
2023-04-30T15:23:25.943Z,13.68
2023-04-30T15:25:53.517Z,13.72
2023-04-30T15:28:20.678Z,13.75
2023-04-30T15:30:47.317Z,13.74
2023-04-30T15:33:14.062Z,13.72
2023-04-30T15:35:41.653Z,13.66
2023-04-30T15:38:08.312Z,13.58
2023-04-30T15:40:36.243Z,13.47
2023-04-30T15:43:02.873Z,13.46
2023-04-30T15:45:29.513Z,13.47
2023-04-30T15:47:56.262Z,13.43
2023-04-30T15:50:23.048Z,13.39
2023-04-30T15:52:49.738Z,13.37
2023-04-30T15:55:16.378Z,13.36
2023-04-30T15:57:43.178Z,13.29
2023-04-30T16:00:11.241Z,13.27
2023-04-30T16:02:41.354Z,13.28
2023-04-30T16:05:09.074Z,13.27
2023-04-30T16:07:36.221Z,13.25
2023-04-30T16:10:03.387Z,13.21
2023-04-30T16:12:30.220Z,13.16
2023-04-30T16:14:57.001Z,13.12
2023-04-30T16:17:24.564Z,13.10
2023-04-30T16:19:51.453Z,13.10
2023-04-30T16:22:18.633Z,13.09
2023-04-30T16:24:45.550Z,13.08
2023-04-30T16:27:12.492Z,13.05
2023-04-30T16:29:39.643Z,13.02
2023-04-30T16:32:06.470Z,12.98
2023-04-30T16:34:33.304Z,12.95
2023-04-30T16:37:00.223Z,12.94
2023-04-30T16:39:26.962Z,12.92
2023-04-30T16:41:54.267Z,12.90
2023-04-30T16:44:21.905Z,12.87
2023-04-30T16:46:49.386Z,12.83
2023-04-30T16:49:16.722Z,12.80
2023-04-30T16:51:43.571Z,12.76
2023-04-30T16:54:10.568Z,12.74
2023-04-30T16:56:37.296Z,12.70
2023-04-30T16:59:03.902Z,12.66
2023-04-30T17:01:30.839Z,12.63
2023-04-30T17:03:57.753Z,12.60
2023-04-30T17:06:24.529Z,12.58
2023-04-30T17:08:53.319Z,12.54
2023-04-30T17:11:21.297Z,12.49
2023-04-30T17:13:47.895Z,12.45
2023-04-30T17:16:14.643Z,12.40
2023-04-30T17:18:41.801Z,12.35
2023-04-30T17:21:08.493Z,12.30
2023-04-30T17:23:35.195Z,12.21
2023-04-30T17:26:03.878Z,12.12
2023-04-30T17:28:30.790Z,12.04
2023-04-30T17:30:58.057Z,11.94
2023-04-30T17:33:26.728Z,11.85
2023-04-30T17:35:53.438Z,11.75
2023-04-30T17:38:20.104Z,11.65
2023-04-30T17:40:46.737Z,11.56
2023-04-30T17:43:13.845Z,11.46
2023-04-30T17:45:40.525Z,11.35
2023-04-30T17:48:07.950Z,11.25
2023-04-30T17:50:34.996Z,11.17
2023-04-30T17:53:02.199Z,11.07
2023-04-30T17:55:28.927Z,10.96
2023-04-30T17:57:55.923Z,10.87
2023-04-30T18:00:23.574Z,10.78
2023-04-30T18:02:51.170Z,10.68
2023-04-30T18:05:18.024Z,10.59
2023-04-30T18:07:44.708Z,10.49
2023-04-30T18:10:11.409Z,10.40
2023-04-30T18:12:38.385Z,10.30
2023-04-30T18:15:06.830Z,10.21
2023-04-30T18:17:37.224Z,10.11
2023-04-30T18:20:04.719Z,9.97
2023-04-30T18:22:32.049Z,9.84
2023-04-30T18:24:59.578Z,9.74
2023-04-30T18:27:26.267Z,9.65
2023-04-30T18:29:52.962Z,9.55
2023-04-30T18:32:19.896Z,9.47
2023-04-30T18:34:47.221Z,9.39
2023-04-30T18:37:14.048Z,9.31
2023-04-30T18:39:41.211Z,9.22
2023-04-30T18:42:09.535Z,9.15
2023-04-30T18:44:36.611Z,9.09
2023-04-30T18:47:04.770Z,9.02
2023-04-30T18:49:32.208Z,8.96
2023-04-30T18:52:00.880Z,8.91
2023-04-30T18:54:28.301Z,8.84
2023-04-30T18:56:55.168Z,8.79
2023-04-30T18:59:22.772Z,8.74
2023-04-30T19:01:50.129Z,8.69
2023-04-30T19:04:17.026Z,8.65
2023-04-30T19:06:44.642Z,8.61
2023-04-30T19:09:11.900Z,8.56
2023-04-30T19:11:38.591Z,8.53
2023-04-30T19:14:06.388Z,8.49
2023-04-30T19:16:33.249Z,8.45
2023-04-30T19:19:00.112Z,8.39
2023-04-30T19:21:28.522Z,8.34
2023-04-30T19:23:57.372Z,8.28
2023-04-30T19:26:25.470Z,8.23
2023-04-30T19:32:37.662Z,8.03
2023-04-30T19:35:05.008Z,7.93
2023-04-30T19:37:31.716Z,7.87
2023-04-30T19:39:58.374Z,7.82
2023-04-30T19:42:25.171Z,7.78
2023-04-30T19:44:53.033Z,7.73
2023-04-30T19:47:19.822Z,7.69
2023-04-30T19:49:47.458Z,7.65
2023-04-30T19:52:14.769Z,7.62
2023-04-30T19:54:48.568Z,7.58
2023-04-30T19:57:15.725Z,7.53
2023-04-30T19:59:43.013Z,7.49
2023-04-30T20:02:09.970Z,7.45
2023-04-30T20:04:37.055Z,7.41
2023-04-30T20:07:04.048Z,7.37
2023-04-30T20:09:30.965Z,7.33
2023-04-30T20:11:57.793Z,7.29
2023-04-30T20:14:24.524Z,7.25
2023-04-30T20:16:55.036Z,7.21
2023-04-30T20:19:22.172Z,7.18
2023-04-30T20:21:52.288Z,7.13
2023-04-30T20:24:19.247Z,7.08
2023-04-30T20:26:45.956Z,7.05
2023-04-30T20:29:12.830Z,6.99
2023-04-30T20:31:40.433Z,6.96
2023-04-30T20:34:07.421Z,6.93
2023-04-30T20:36:34.388Z,6.89
2023-04-30T20:39:01.427Z,6.85
2023-04-30T20:41:30.449Z,6.82
2023-04-30T20:43:59.993Z,6.78
2023-04-30T20:46:28.379Z,6.73
2023-04-30T20:49:01.111Z,6.69
2023-04-30T20:51:28.634Z,6.65
2023-04-30T20:53:55.449Z,6.62
2023-04-30T20:56:22.385Z,6.58
2023-04-30T20:58:49.200Z,6.55
2023-04-30T21:01:16.066Z,6.51
2023-04-30T21:03:42.836Z,6.48
2023-04-30T21:06:10.990Z,6.44
2023-04-30T21:08:37.790Z,6.41
2023-04-30T21:11:04.447Z,6.36
2023-04-30T21:13:31.253Z,6.32
2023-04-30T21:15:58.022Z,6.27
2023-04-30T21:18:27.269Z,6.21
2023-04-30T21:20:54.014Z,6.17
2023-04-30T21:23:20.641Z,6.13
2023-04-30T21:25:47.609Z,6.09
2023-04-30T21:28:14.637Z,6.05
2023-04-30T21:30:41.388Z,6.00
2023-04-30T21:33:08.534Z,5.96
2023-04-30T21:35:35.280Z,5.92
2023-04-30T21:38:02.094Z,5.88
2023-04-30T21:40:32.194Z,5.83
2023-04-30T21:42:59.315Z,5.78
2023-04-30T21:45:25.989Z,5.74
2023-04-30T21:47:52.808Z,5.70
2023-04-30T21:50:19.461Z,5.66
2023-04-30T21:52:46.114Z,5.63
2023-04-30T21:55:12.790Z,5.57
2023-04-30T21:57:39.696Z,5.53
2023-04-30T22:00:07.455Z,5.48
2023-04-30T22:02:34.972Z,5.46
2023-04-30T22:05:02.292Z,5.41
2023-04-30T22:07:29.465Z,5.37
2023-04-30T22:09:57.580Z,5.33
2023-04-30T22:12:25.273Z,5.29
2023-04-30T22:14:55.312Z,5.25
2023-04-30T22:17:22.680Z,5.21
2023-04-30T22:19:49.550Z,5.17
2023-04-30T22:22:16.619Z,5.13
2023-04-30T22:24:43.282Z,5.10
2023-04-30T22:27:09.904Z,5.07
2023-04-30T22:29:36.776Z,5.05
2023-04-30T22:32:04.261Z,4.99
2023-04-30T22:34:31.217Z,4.94
2023-04-30T22:36:57.907Z,4.91
2023-04-30T22:39:24.577Z,4.86
2023-04-30T22:41:51.304Z,4.81
2023-04-30T22:44:18.062Z,4.77
2023-04-30T22:46:44.726Z,4.73
2023-04-30T22:49:17.087Z,4.67
2023-04-30T22:51:54.181Z,4.62
2023-04-30T22:54:20.882Z,4.58
2023-04-30T22:56:47.491Z,4.54
2023-04-30T22:59:14.173Z,4.49
2023-04-30T23:01:40.846Z,4.45
2023-04-30T23:04:07.501Z,4.43
2023-04-30T23:06:34.301Z,4.40
2023-04-30T23:09:01.000Z,4.38
2023-04-30T23:11:27.655Z,4.36
2023-04-30T23:13:54.339Z,4.33
2023-04-30T23:16:20.984Z,4.29
2023-04-30T23:18:48.855Z,4.25
2023-04-30T23:21:15.695Z,4.20
2023-04-30T23:23:42.300Z,4.16
2023-04-30T23:26:08.905Z,4.13
2023-04-30T23:28:37.973Z,4.10
2023-04-30T23:31:04.651Z,4.06
2023-04-30T23:33:31.267Z,4.02
2023-04-30T23:35:57.952Z,3.98
2023-04-30T23:38:24.556Z,3.95
2023-04-30T23:40:51.256Z,3.92
2023-04-30T23:43:18.163Z,3.87
2023-04-30T23:45:44.841Z,3.84
2023-04-30T23:48:11.634Z,3.81
2023-04-30T23:50:38.410Z,3.78
2023-04-30T23:53:05.232Z,3.74
2023-04-30T23:55:31.898Z,3.72
2023-04-30T23:57:58.550Z,3.71
